createdAt,value
2022-12-27T00:01:33.883Z,0.50
2022-12-27T00:06:27.898Z,1.17
2022-12-27T00:11:23.429Z,1.73
2022-12-27T00:16:19.396Z,1.00
2022-12-27T00:21:13.900Z,0.77
2022-12-27T00:26:12.494Z,0.90
2022-12-27T00:31:05.448Z,0.70
2022-12-27T00:36:00.936Z,1.03
2022-12-27T00:40:53.585Z,0.80
2022-12-27T00:45:45.899Z,0.77
2022-12-27T00:55:46.878Z,0.77
2022-12-27T01:00:38.624Z,1.67
2022-12-27T01:05:30.323Z,2.43
2022-12-27T01:15:28.395Z,1.37
2022-12-27T01:30:32.861Z,0.23
2022-12-27T01:51:24.163Z,0.90
2022-12-27T02:06:57.558Z,0.83
2022-12-27T02:17:35.212Z,2.13
2022-12-27T02:34:41.158Z,1.70
2022-12-27T02:39:39.047Z,1.73
2022-12-27T02:44:49.784Z,0.57
2022-12-27T02:50:02.727Z,1.90
2022-12-27T02:55:31.549Z,1.17
2022-12-27T03:00:44.471Z,2.47
2022-12-27T03:06:12.846Z,1.67
2022-12-27T03:11:23.173Z,1.83
2022-12-27T03:16:55.577Z,1.13
2022-12-27T03:22:08.604Z,1.23
2022-12-27T03:27:04.641Z,0.87
2022-12-27T03:32:20.409Z,2.13
2022-12-27T03:37:39.793Z,2.13
2022-12-27T03:43:04.238Z,1.00
2022-12-27T03:48:05.840Z,0.90
2022-12-27T03:53:15.547Z,1.90
2022-12-27T03:58:07.319Z,0.57
2022-12-27T04:02:59.056Z,1.90
2022-12-27T04:08:09.265Z,4.53
2022-12-27T04:13:19.677Z,1.33
2022-12-27T04:18:30.007Z,1.00
2022-12-27T04:23:40.244Z,0.47
2022-12-27T04:28:51.057Z,1.57
2022-12-27T04:34:01.369Z,3.60
2022-12-27T04:38:53.064Z,3.23
2022-12-27T04:44:03.219Z,0.80
2022-12-27T04:49:13.682Z,0.97
2022-12-27T04:54:36.906Z,2.63
2022-12-27T04:59:47.217Z,2.00
2022-12-27T05:04:40.065Z,2.50
2022-12-27T05:09:50.324Z,1.47
2022-12-27T05:14:42.900Z,1.97
2022-12-27T05:19:34.660Z,2.63
2022-12-27T05:24:46.329Z,4.00
2022-12-27T05:29:38.244Z,2.33
2022-12-27T05:34:30.055Z,2.63
2022-12-27T05:39:21.876Z,3.00
2022-12-27T05:44:13.610Z,3.93
2022-12-27T05:49:05.497Z,4.87
2022-12-27T05:53:57.404Z,1.40
2022-12-27T05:58:53.899Z,1.67
2022-12-27T06:03:46.370Z,5.20
2022-12-27T06:08:39.742Z,1.07
2022-12-27T06:13:32.379Z,2.73
2022-12-27T06:18:24.146Z,2.43
2022-12-27T06:23:15.951Z,2.33
2022-12-27T06:28:07.705Z,1.60
2022-12-27T06:32:59.800Z,3.50
2022-12-27T06:37:52.465Z,1.60
2022-12-27T06:42:44.311Z,6.23
2022-12-27T06:47:37.019Z,4.20
2022-12-27T06:52:29.006Z,4.17
2022-12-27T06:57:20.785Z,2.17
2022-12-27T07:02:12.859Z,1.97
2022-12-27T07:07:04.815Z,4.10
2022-12-27T07:11:57.904Z,1.63
2022-12-27T07:16:50.494Z,2.80
2022-12-27T07:21:43.088Z,1.23
2022-12-27T07:26:34.833Z,4.17
2022-12-27T07:31:31.914Z,4.70
2022-12-27T07:36:30.630Z,3.47
2022-12-27T07:41:22.628Z,2.87
2022-12-27T07:46:19.536Z,1.77
2022-12-27T07:51:13.102Z,2.20
2022-12-27T07:56:23.436Z,2.20
2022-12-27T08:01:21.983Z,5.50
2022-12-27T08:06:24.828Z,1.63
2022-12-27T08:11:17.298Z,3.10
2022-12-27T08:16:21.065Z,2.53
2022-12-27T08:21:19.262Z,2.00
2022-12-27T08:26:11.397Z,3.87
2022-12-27T08:31:11.316Z,1.83
2022-12-27T08:36:44.738Z,3.83
2022-12-27T08:41:23.630Z,1.20
2022-12-27T08:46:15.522Z,1.13
2022-12-27T08:51:12.975Z,4.47
2022-12-27T08:56:07.384Z,4.60
2022-12-27T09:01:10.693Z,2.47
2022-12-27T09:06:26.541Z,5.03
2022-12-27T09:11:26.952Z,4.23
2022-12-27T09:21:34.237Z,1.33
2022-12-27T09:31:39.064Z,1.90
2022-12-27T09:36:31.582Z,4.40
2022-12-27T09:57:47.025Z,7.67
2022-12-27T10:02:39.536Z,2.67
2022-12-27T10:08:11.175Z,2.67
2022-12-27T10:13:41.863Z,5.17
2022-12-27T10:19:06.343Z,1.30
2022-12-27T10:29:27.089Z,2.77
2022-12-27T10:34:24.848Z,3.20
2022-12-27T10:39:30.030Z,1.70
2022-12-27T10:44:23.865Z,3.40
2022-12-27T10:49:33.607Z,3.67
2022-12-27T10:54:30.533Z,3.63
2022-12-27T10:59:39.220Z,2.27
2022-12-27T11:15:04.361Z,1.43
2022-12-27T11:20:02.449Z,1.03
2022-12-27T11:25:01.076Z,3.70
2022-12-27T11:29:58.922Z,1.87
2022-12-27T11:34:56.624Z,3.63
2022-12-27T11:40:34.911Z,1.20
2022-12-27T11:45:52.699Z,2.53
2022-12-27T11:51:16.108Z,3.83
2022-12-27T11:56:21.230Z,2.73
2022-12-27T12:01:37.584Z,2.23
2022-12-27T12:07:13.978Z,1.87
2022-12-27T12:12:37.827Z,1.23
2022-12-27T12:17:46.761Z,2.53
2022-12-27T12:23:14.514Z,2.63
2022-12-27T12:28:59.873Z,2.83
2022-12-27T12:45:53.223Z,4.30
2022-12-27T13:08:30.489Z,4.07
2022-12-27T13:13:51.414Z,1.30
2022-12-27T13:19:14.508Z,0.80
2022-12-27T13:24:32.707Z,2.63
2022-12-27T13:29:41.367Z,1.83
2022-12-27T13:35:04.128Z,2.80
2022-12-27T13:40:17.623Z,1.53
2022-12-27T13:45:44.899Z,1.20
2022-12-27T13:50:43.942Z,0.70
2022-12-27T13:55:54.772Z,0.70
2022-12-27T14:01:30.048Z,5.23
2022-12-27T14:07:06.092Z,3.00
2022-12-27T14:18:46.431Z,2.80
2022-12-27T14:24:02.261Z,3.73
2022-12-27T14:29:35.758Z,4.63
2022-12-27T14:40:56.664Z,2.13
2022-12-27T14:52:04.435Z,1.53
2022-12-27T14:57:27.499Z,1.57
2022-12-27T15:03:04.522Z,3.17
2022-12-27T15:08:21.124Z,2.27
2022-12-27T15:18:52.654Z,1.70
2022-12-27T15:24:30.418Z,3.73
2022-12-27T15:29:52.272Z,3.07
2022-12-27T15:40:37.772Z,1.83
2022-12-27T15:46:17.919Z,2.20
2022-12-27T15:51:40.948Z,2.17
2022-12-27T15:57:17.535Z,7.37
2022-12-27T16:02:37.440Z,3.50
2022-12-27T16:08:19.121Z,4.73
2022-12-27T16:13:11.191Z,2.57
2022-12-27T16:18:04.433Z,3.20
2022-12-27T16:23:07.161Z,3.73
2022-12-27T16:28:17.609Z,4.63
2022-12-27T16:33:34.231Z,5.13
2022-12-27T16:38:26.773Z,9.97
2022-12-27T16:43:42.915Z,9.33
2022-12-27T16:48:58.759Z,8.70
2022-12-27T16:54:22.399Z,8.30
2022-12-27T17:00:13.044Z,11.90
2022-12-27T17:05:36.461Z,5.90
2022-12-27T17:10:28.575Z,7.30
2022-12-27T17:15:22.313Z,8.00
2022-12-27T17:20:19.285Z,6.10
2022-12-27T17:25:18.471Z,9.70
2022-12-27T17:30:21.996Z,15.97
2022-12-27T17:35:52.385Z,15.20
2022-12-27T17:41:39.028Z,13.80
2022-12-27T17:46:51.909Z,16.20
2022-12-27T17:52:12.653Z,21.20
2022-12-27T18:07:47.127Z,11.40
2022-12-27T18:12:44.904Z,11.30
2022-12-27T18:17:45.712Z,10.03
2022-12-27T18:22:46.326Z,8.07
2022-12-27T18:27:38.994Z,13.63
2022-12-27T18:32:59.193Z,14.73
2022-12-27T18:48:14.944Z,16.43
2022-12-27T18:53:27.470Z,11.20
2022-12-27T18:58:24.496Z,15.87
2022-12-27T19:24:36.073Z,9.33
2022-12-27T19:29:34.212Z,17.10
2022-12-27T19:34:54.786Z,16.70
2022-12-27T19:44:54.628Z,11.73
2022-12-27T19:55:02.284Z,15.27
2022-12-27T20:00:05.354Z,15.10
2022-12-27T20:05:00.717Z,15.50
2022-12-27T20:25:11.848Z,14.30
2022-12-27T20:30:05.920Z,19.27
2022-12-27T20:34:57.781Z,21.67
2022-12-27T20:39:49.589Z,18.13
2022-12-27T20:44:43.256Z,17.00
2022-12-27T20:49:37.038Z,10.23
2022-12-27T20:54:29.789Z,11.17
2022-12-27T20:59:21.774Z,11.53
2022-12-27T21:04:15.699Z,13.17
2022-12-27T21:09:08.742Z,11.33
2022-12-27T21:19:13.648Z,21.67
2022-12-27T21:29:20.094Z,26.70
2022-12-27T21:34:12.616Z,20.83
2022-12-27T21:44:13.443Z,16.57
2022-12-27T21:54:21.805Z,12.43
2022-12-27T21:59:16.587Z,16.13
2022-12-27T22:04:09.896Z,11.30
2022-12-27T22:09:07.630Z,9.83
2022-12-27T22:14:01.627Z,13.43
2022-12-27T22:18:56.813Z,8.00
2022-12-27T22:34:08.577Z,5.97
2022-12-27T22:39:03.025Z,8.23
2022-12-27T22:44:01.512Z,7.90
2022-12-27T22:48:58.887Z,10.90
2022-12-27T22:53:51.759Z,10.37
2022-12-27T22:58:45.239Z,7.80
2022-12-27T23:03:37.742Z,9.53
2022-12-27T23:08:31.273Z,8.23
2022-12-27T23:13:26.861Z,11.20
2022-12-27T23:23:27.505Z,11.40
2022-12-27T23:28:20.750Z,9.67
2022-12-27T23:33:12.689Z,10.57
2022-12-27T23:38:05.663Z,10.37
2022-12-27T23:43:12.505Z,10.87
2022-12-27T23:48:12.920Z,8.63
2022-12-27T23:53:05.806Z,10.13
2022-12-27T23:57:57.976Z,10.47
